createdAt,value
2023-02-27T00:00:23.292Z,-0.61
2023-02-27T00:02:01.702Z,-0.63
2023-02-27T00:04:19.101Z,-0.65
2023-02-27T00:06:19.606Z,-0.61
2023-02-27T00:07:54.406Z,-0.64
2023-02-27T00:09:26.813Z,-0.67
2023-02-27T00:11:29.530Z,-0.69
2023-02-27T00:13:52.476Z,-0.65
2023-02-27T00:15:25.222Z,-0.71
2023-02-27T00:17:28.172Z,-0.74
2023-02-27T00:19:02.421Z,-0.78
2023-02-27T00:21:03.041Z,-0.80
2023-02-27T00:22:36.616Z,-0.83
2023-02-27T00:26:15.110Z,-0.61
2023-02-27T00:28:18.444Z,-0.68
2023-02-27T00:32:55.700Z,-0.71
2023-02-27T00:34:46.160Z,-0.77
2023-02-27T00:36:18.379Z,-0.73
2023-02-27T00:37:58.640Z,-0.70
2023-02-27T00:39:42.985Z,-0.72
2023-02-27T00:41:51.593Z,-0.68
2023-02-27T00:43:24.644Z,-0.64
2023-02-27T00:45:23.056Z,-0.66
2023-02-27T00:47:00.612Z,-0.68
2023-02-27T00:48:32.956Z,-0.68
2023-02-27T00:50:39.167Z,-0.66
2023-02-27T00:53:01.452Z,-0.69
2023-02-27T00:55:06.575Z,-0.62
2023-02-27T00:57:57.584Z,-0.58
2023-02-27T01:00:19.686Z,-0.59
2023-02-27T01:01:51.811Z,-0.60
2023-02-27T01:03:24.214Z,-0.66
2023-02-27T01:05:23.700Z,-0.61
2023-02-27T01:06:56.859Z,-0.71
2023-02-27T01:08:29.192Z,-0.76
2023-02-27T01:10:33.973Z,-0.78
2023-02-27T01:12:50.723Z,-0.85
2023-02-27T01:14:22.958Z,-0.94
2023-02-27T01:16:06.000Z,-0.90
2023-02-27T01:17:49.248Z,-0.87
2023-02-27T01:19:30.672Z,-0.81
2023-02-27T01:22:17.333Z,-0.78
2023-02-27T01:23:59.298Z,-0.79
2023-02-27T01:25:31.492Z,-0.83
2023-02-27T01:27:28.416Z,-0.88
2023-02-27T01:29:00.918Z,-0.85
2023-02-27T01:30:33.065Z,-0.89
2023-02-27T01:32:05.465Z,-0.90
2023-02-27T01:33:39.458Z,-0.88
2023-02-27T01:35:11.629Z,-0.90
2023-02-27T01:37:22.746Z,-0.94
2023-02-27T01:39:14.755Z,-0.90
2023-02-27T01:42:18.413Z,-0.85
2023-02-27T01:44:08.529Z,-0.87
2023-02-27T01:45:49.707Z,-0.88
2023-02-27T01:47:58.664Z,-0.75
2023-02-27T01:49:45.302Z,-0.75
2023-02-27T01:51:39.457Z,-0.68
2023-02-27T01:53:36.478Z,-0.71
2023-02-27T01:56:10.636Z,-0.64
2023-02-27T01:58:01.882Z,-0.69
2023-02-27T01:59:36.828Z,-0.70
2023-02-27T02:01:32.794Z,-0.72
2023-02-27T02:03:35.347Z,-0.70
2023-02-27T02:06:22.832Z,-0.69
2023-02-27T02:08:40.319Z,-0.75
2023-02-27T02:10:42.011Z,-0.76
2023-02-27T02:12:16.711Z,-0.78
2023-02-27T02:13:53.761Z,-0.76
2023-02-27T02:15:35.464Z,-0.73
2023-02-27T02:17:54.884Z,-0.75
2023-02-27T02:20:21.307Z,-0.71
2023-02-27T02:22:45.385Z,-0.72
2023-02-27T02:25:12.220Z,-0.64
2023-02-27T02:26:47.248Z,-0.66
2023-02-27T02:28:37.810Z,-0.71
2023-02-27T02:30:19.529Z,-0.71
2023-02-27T02:32:41.859Z,-0.71
2023-02-27T02:35:05.364Z,-0.77
2023-02-27T02:37:31.101Z,-0.83
2023-02-27T02:40:05.371Z,-0.85
2023-02-27T02:42:11.629Z,-0.84
2023-02-27T02:44:45.275Z,-0.75
2023-02-27T02:46:42.729Z,-0.77
2023-02-27T02:48:33.225Z,-0.82
2023-02-27T02:50:45.715Z,-0.85
2023-02-27T02:53:13.052Z,-0.84
2023-02-27T02:55:35.972Z,-0.88
2023-02-27T02:57:24.098Z,-0.85
2023-02-27T02:59:22.690Z,-0.90
2023-02-27T03:01:03.218Z,-0.86
2023-02-27T03:02:59.046Z,-0.86
2023-02-27T03:04:42.078Z,-0.85
2023-02-27T03:06:37.760Z,-0.86
2023-02-27T03:08:19.683Z,-0.87
2023-02-27T03:10:08.401Z,-0.88
2023-02-27T03:11:45.642Z,-0.90
2023-02-27T03:13:52.528Z,-0.94
2023-02-27T03:16:08.360Z,-0.99
2023-02-27T03:18:32.996Z,-1.03
2023-02-27T03:20:09.260Z,-1.03
2023-02-27T03:21:59.234Z,-1.05
2023-02-27T03:23:37.906Z,-1.02
2023-02-27T03:25:13.006Z,-1.02
2023-02-27T03:27:06.702Z,-0.98
2023-02-27T03:29:31.592Z,-0.95
2023-02-27T03:31:18.210Z,-0.98
2023-02-27T03:33:15.554Z,-0.86
2023-02-27T03:34:49.768Z,-0.91
2023-02-27T03:36:31.787Z,-0.91
2023-02-27T03:38:42.246Z,-0.94
2023-02-27T03:40:42.472Z,-1.01
2023-02-27T03:42:34.343Z,-0.99
2023-02-27T03:44:59.829Z,-0.96
2023-02-27T03:47:08.916Z,-0.91
2023-02-27T03:48:44.859Z,-0.94
2023-02-27T03:50:51.506Z,-0.95
2023-02-27T03:52:25.361Z,-0.97
2023-02-27T03:54:31.875Z,-0.98
2023-02-27T03:56:50.113Z,-0.93
2023-02-27T03:58:40.194Z,-0.96
2023-02-27T04:00:52.660Z,-1.07
2023-02-27T04:02:42.868Z,-1.09
2023-02-27T04:04:41.702Z,-1.03
2023-02-27T04:07:28.645Z,-1.10
2023-02-27T04:09:40.888Z,-1.11
2023-02-27T04:11:44.599Z,-1.12
2023-02-27T04:14:41.284Z,-1.12
2023-02-27T04:16:50.699Z,-1.07
2023-02-27T04:19:34.284Z,-1.02
2023-02-27T04:21:59.988Z,-0.92
2023-02-27T04:23:40.033Z,-0.86
2023-02-27T04:25:45.123Z,-0.82
2023-02-27T04:28:08.823Z,-0.78
2023-02-27T04:30:18.305Z,-0.76
2023-02-27T04:32:00.666Z,-0.71
2023-02-27T04:34:12.745Z,-0.64
2023-02-27T04:35:52.642Z,-0.59
2023-02-27T04:38:00.811Z,-0.57
2023-02-27T04:39:38.818Z,-0.56
2023-02-27T04:41:30.879Z,-0.51
2023-02-27T04:43:53.567Z,-0.50
2023-02-27T04:45:53.482Z,-0.46
2023-02-27T04:48:41.192Z,-0.44
2023-02-27T04:50:19.713Z,-0.43
2023-02-27T04:52:30.493Z,-0.42
2023-02-27T04:54:06.888Z,-0.35
2023-02-27T04:55:47.694Z,-0.38
2023-02-27T04:57:35.670Z,-0.33
2023-02-27T04:59:48.734Z,-0.34
2023-02-27T05:01:30.598Z,-0.37
2023-02-27T05:03:30.723Z,-0.41
2023-02-27T05:05:09.347Z,-0.39
2023-02-27T05:06:45.254Z,-0.38
2023-02-27T05:08:31.625Z,-0.35
2023-02-27T05:10:35.512Z,-0.36
2023-02-27T05:13:02.069Z,-0.35
2023-02-27T05:15:28.755Z,-0.31
2023-02-27T05:17:15.120Z,-0.27
2023-02-27T05:18:48.963Z,-0.30
2023-02-27T05:20:24.155Z,-0.31
2023-02-27T05:22:14.061Z,-0.30
2023-02-27T05:24:14.003Z,-0.31
2023-02-27T05:26:21.082Z,-0.31
2023-02-27T05:28:36.509Z,-0.22
2023-02-27T05:31:21.157Z,-0.20
2023-02-27T05:33:02.040Z,-0.18
2023-02-27T05:34:42.087Z,-0.15
2023-02-27T05:36:47.492Z,-0.17
2023-02-27T05:38:39.944Z,-0.09
2023-02-27T05:40:17.156Z,-0.09
2023-02-27T05:41:55.940Z,-0.12
2023-02-27T05:43:32.046Z,-0.12
2023-02-27T05:45:10.181Z,-0.14
2023-02-27T05:46:50.129Z,-0.15
2023-02-27T05:48:30.001Z,-0.16
2023-02-27T05:50:44.785Z,-0.22
2023-02-27T05:52:34.502Z,-0.24
2023-02-27T05:54:18.486Z,-0.27
2023-02-27T05:56:03.564Z,-0.25
2023-02-27T05:58:25.474Z,-0.27
2023-02-27T06:00:53.460Z,-0.21
2023-02-27T06:02:25.688Z,-0.19
2023-02-27T06:04:26.310Z,-0.23
2023-02-27T06:06:01.289Z,-0.28
2023-02-27T06:08:00.920Z,-0.27
2023-02-27T06:10:09.830Z,-0.26
2023-02-27T06:11:54.084Z,-0.32
2023-02-27T06:13:26.468Z,-0.31
2023-02-27T06:14:58.648Z,-0.32
2023-02-27T06:16:43.592Z,-0.35
2023-02-27T06:18:17.217Z,-0.36
2023-02-27T06:20:05.635Z,-0.34
2023-02-27T06:22:20.769Z,-0.40
2023-02-27T06:25:15.946Z,-0.43
2023-02-27T06:27:43.620Z,-0.45
2023-02-27T06:29:15.764Z,-0.45
2023-02-27T06:31:14.018Z,-0.48
2023-02-27T06:35:37.346Z,-0.45
2023-02-27T06:37:25.185Z,-0.40
2023-02-27T06:39:29.388Z,-0.37
2023-02-27T06:41:02.608Z,-0.32
2023-02-27T06:43:13.325Z,-0.31
2023-02-27T06:44:47.606Z,-0.28
2023-02-27T06:46:28.403Z,-0.24
2023-02-27T06:48:12.610Z,-0.17
2023-02-27T06:50:06.897Z,-0.11
2023-02-27T06:52:01.892Z,-0.01
2023-02-27T06:56:11.709Z,0.23
2023-02-27T06:58:59.666Z,0.38
2023-02-27T07:00:31.883Z,0.47
2023-02-27T07:02:22.447Z,0.53
2023-02-27T07:05:08.240Z,0.61
2023-02-27T07:07:34.017Z,0.66
2023-02-27T07:09:02.684Z,0.70
2023-02-27T07:11:03.905Z,0.73
2023-02-27T07:12:39.394Z,0.76
2023-02-27T07:14:47.546Z,0.79
2023-02-27T07:17:09.145Z,0.83
2023-02-27T07:19:09.560Z,0.89
2023-02-27T07:22:21.174Z,0.96
2023-02-27T07:23:53.485Z,0.93
2023-02-27T07:25:51.673Z,0.93
2023-02-27T07:28:04.717Z,0.97
2023-02-27T07:30:34.241Z,1.02
2023-02-27T07:33:00.281Z,1.01
2023-02-27T07:35:21.427Z,1.10
2023-02-27T07:37:21.228Z,1.09
2023-02-27T07:39:14.669Z,1.17
2023-02-27T07:41:30.767Z,1.16
2023-02-27T07:43:06.502Z,1.16
2023-02-27T07:45:07.307Z,1.20
2023-02-27T07:46:40.653Z,1.20
2023-02-27T07:48:54.402Z,1.21
2023-02-27T07:51:22.182Z,1.22
2023-02-27T07:52:55.159Z,1.23
2023-02-27T07:54:44.725Z,1.25
2023-02-27T07:57:01.554Z,1.28
2023-02-27T07:58:56.811Z,1.34
2023-02-27T08:00:29.770Z,1.42
2023-02-27T08:02:33.202Z,1.40
2023-02-27T08:04:10.045Z,1.43
2023-02-27T08:06:50.163Z,1.51
2023-02-27T08:08:22.289Z,1.54
2023-02-27T08:10:04.308Z,1.59
2023-02-27T08:12:03.135Z,1.65
2023-02-27T08:14:30.771Z,1.74
2023-02-27T08:16:23.941Z,1.82
2023-02-27T08:18:21.469Z,1.90
2023-02-27T08:26:07.147Z,2.01
2023-02-27T08:28:30.823Z,2.06
2023-02-27T08:30:25.052Z,2.12
2023-02-27T08:32:03.152Z,2.09
2023-02-27T08:34:10.156Z,2.10
2023-02-27T08:35:46.012Z,2.10
2023-02-27T08:37:51.317Z,2.12
2023-02-27T08:40:28.147Z,2.15
2023-02-27T08:42:03.306Z,2.27
2023-02-27T08:43:55.569Z,2.28
2023-02-27T08:45:43.270Z,2.44
2023-02-27T08:47:46.709Z,2.45
2023-02-27T08:49:49.469Z,2.56
2023-02-27T08:51:41.545Z,2.65
2023-02-27T08:55:12.735Z,2.78
2023-02-27T08:57:12.716Z,2.87
2023-02-27T08:59:39.317Z,2.95
2023-02-27T09:01:56.461Z,3.16
2023-02-27T09:04:14.620Z,3.33
2023-02-27T09:05:52.827Z,3.43
2023-02-27T09:07:25.097Z,3.52
2023-02-27T09:09:12.751Z,3.54
2023-02-27T09:11:13.670Z,3.46
2023-02-27T09:13:27.882Z,3.64
2023-02-27T09:15:52.012Z,3.79
2023-02-27T09:18:01.592Z,3.87
2023-02-27T09:22:55.752Z,4.15
2023-02-27T09:25:26.055Z,4.29
2023-02-27T09:27:41.860Z,4.43
2023-02-27T09:30:31.616Z,4.53
2023-02-27T09:33:06.264Z,4.68
2023-02-27T09:34:38.449Z,4.80
2023-02-27T09:36:24.762Z,4.75
2023-02-27T09:38:02.956Z,4.82
2023-02-27T09:39:35.116Z,4.76
2023-02-27T09:41:20.199Z,4.76
2023-02-27T09:42:57.067Z,4.68
2023-02-27T09:44:59.588Z,4.68
2023-02-27T09:46:55.212Z,4.75
2023-02-27T09:49:00.174Z,4.81
2023-02-27T09:53:30.477Z,4.88
2023-02-27T09:58:43.679Z,4.94
2023-02-27T10:01:06.547Z,4.93
2023-02-27T10:03:29.129Z,4.85
2023-02-27T10:06:03.349Z,4.93
2023-02-27T10:08:09.309Z,4.86
2023-02-27T10:10:54.011Z,4.96
2023-02-27T10:12:57.550Z,5.01
2023-02-27T10:15:16.541Z,5.07
2023-02-27T10:17:53.415Z,5.10
2023-02-27T10:20:14.463Z,5.20
2023-02-27T10:22:52.313Z,5.09
2023-02-27T10:25:04.229Z,5.16
2023-02-27T10:26:57.899Z,5.11
2023-02-27T10:28:38.204Z,5.01
2023-02-27T10:30:32.870Z,5.00
2023-02-27T10:32:53.135Z,5.02
2023-02-27T10:35:02.482Z,4.98
2023-02-27T10:37:28.252Z,5.06
2023-02-27T10:39:16.902Z,5.14
2023-02-27T10:41:24.218Z,5.19
2023-02-27T10:43:40.452Z,5.16
2023-02-27T10:45:51.208Z,5.09
2023-02-27T10:50:03.958Z,4.99
2023-02-27T10:52:09.005Z,4.99
2023-02-27T10:54:28.924Z,4.94
2023-02-27T10:56:05.979Z,4.91
2023-02-27T10:58:14.710Z,4.90
2023-02-27T11:00:31.587Z,4.84
2023-02-27T11:02:21.897Z,4.94
2023-02-27T11:04:02.005Z,5.03
2023-02-27T11:05:51.896Z,5.16
2023-02-27T11:07:43.493Z,5.32
2023-02-27T11:10:05.585Z,5.59
2023-02-27T11:11:38.166Z,5.86
2023-02-27T11:13:24.721Z,5.97
2023-02-27T11:14:59.754Z,6.07
2023-02-27T11:17:03.387Z,6.22
2023-02-27T11:18:38.739Z,6.26
2023-02-27T11:20:36.204Z,6.22
2023-02-27T11:22:20.756Z,6.18
2023-02-27T11:24:44.447Z,6.19
2023-02-27T11:27:07.874Z,6.23
2023-02-27T11:29:22.015Z,6.27
2023-02-27T11:31:30.709Z,6.14
2023-02-27T11:34:09.424Z,5.93
2023-02-27T11:35:57.020Z,5.70
2023-02-27T11:37:51.771Z,5.63
2023-02-27T11:39:44.105Z,5.49
2023-02-27T11:41:33.804Z,5.14
2023-02-27T11:43:53.119Z,4.97
2023-02-27T11:46:11.310Z,4.95
2023-02-27T11:47:56.338Z,5.01
2023-02-27T11:50:09.010Z,5.06
2023-02-27T11:52:18.559Z,5.11
2023-02-27T11:54:13.728Z,5.20
2023-02-27T11:55:56.204Z,5.25
2023-02-27T11:58:07.032Z,5.27
2023-02-27T12:00:21.854Z,5.23
2023-02-27T12:02:39.180Z,5.34
2023-02-27T12:04:29.810Z,5.48
2023-02-27T12:06:38.346Z,5.60
2023-02-27T12:09:30.981Z,5.74
2023-02-27T12:11:52.036Z,5.75
2023-02-27T12:13:57.301Z,5.85
2023-02-27T12:16:14.820Z,5.78
2023-02-27T12:18:45.719Z,5.64
2023-02-27T12:20:55.743Z,5.65
2023-02-27T12:22:33.659Z,5.68
2023-02-27T12:25:00.970Z,5.75
2023-02-27T12:27:20.227Z,5.93
2023-02-27T12:29:04.911Z,6.14
2023-02-27T12:31:14.900Z,6.13
2023-02-27T12:33:31.785Z,6.14
2023-02-27T12:35:56.633Z,6.17
2023-02-27T12:38:04.470Z,6.02
2023-02-27T12:40:20.344Z,5.98
2023-02-27T12:43:02.051Z,5.92
2023-02-27T12:45:40.601Z,5.76
2023-02-27T12:55:16.526Z,6.10
2023-02-27T12:57:47.229Z,6.22
2023-02-27T12:59:56.578Z,6.42
2023-02-27T13:02:21.509Z,6.60
2023-02-27T13:04:28.366Z,6.80
2023-02-27T13:06:44.905Z,6.74
2023-02-27T13:09:33.576Z,6.72
2023-02-27T13:12:04.536Z,6.69
2023-02-27T13:14:25.392Z,6.62
2023-02-27T13:16:59.248Z,6.51
2023-02-27T13:19:25.077Z,6.26
2023-02-27T13:21:47.012Z,6.16
2023-02-27T13:24:02.122Z,6.27
2023-02-27T13:26:21.100Z,6.32
2023-02-27T13:31:19.705Z,5.95
2023-02-27T13:33:52.722Z,5.78
2023-02-27T13:37:06.006Z,5.58
2023-02-27T13:38:47.636Z,5.51
2023-02-27T13:40:45.122Z,5.57
2023-02-27T13:42:59.067Z,5.55
2023-02-27T13:45:14.317Z,5.57
2023-02-27T13:47:56.823Z,5.55
2023-02-27T13:52:44.258Z,5.54
2023-02-27T13:54:39.336Z,5.59
2023-02-27T13:56:36.601Z,5.48
2023-02-27T13:59:03.554Z,5.50
2023-02-27T14:01:28.520Z,5.67
2023-02-27T14:03:18.268Z,5.75
2023-02-27T14:05:17.645Z,5.72
2023-02-27T14:06:49.830Z,5.66
2023-02-27T14:09:08.837Z,5.59
2023-02-27T14:11:26.836Z,5.47
2023-02-27T14:13:47.382Z,5.42
2023-02-27T14:16:12.020Z,5.34
2023-02-27T14:18:20.097Z,5.37
2023-02-27T14:20:24.354Z,5.27
2023-02-27T14:22:29.918Z,5.30
2023-02-27T14:25:01.956Z,5.33
2023-02-27T14:27:23.125Z,5.30
2023-02-27T14:29:41.223Z,5.26
2023-02-27T14:32:03.563Z,5.18
2023-02-27T14:34:32.182Z,5.16
2023-02-27T14:36:14.258Z,5.10
2023-02-27T14:38:16.532Z,5.06
2023-02-27T14:40:38.100Z,5.03
2023-02-27T14:43:08.703Z,4.95
2023-02-27T14:45:05.654Z,4.95
2023-02-27T14:47:42.388Z,4.98
2023-02-27T14:50:19.151Z,4.99
2023-02-27T14:52:55.723Z,5.13
2023-02-27T14:54:53.734Z,4.97
2023-02-27T14:57:50.758Z,4.82
2023-02-27T15:00:11.991Z,4.74
2023-02-27T15:02:34.113Z,4.61
2023-02-27T15:04:28.466Z,4.58
2023-02-27T15:07:16.593Z,4.55
2023-02-27T15:09:00.744Z,4.48
2023-02-27T15:11:07.574Z,4.47
2023-02-27T15:12:52.638Z,4.49
2023-02-27T15:15:26.160Z,4.47
2023-02-27T15:18:07.342Z,4.41
2023-02-27T15:20:44.455Z,4.36
2023-02-27T15:23:18.440Z,4.35
2023-02-27T15:25:08.984Z,4.26
2023-02-27T15:27:20.085Z,4.24
2023-02-27T15:29:28.025Z,4.20
2023-02-27T15:31:40.601Z,4.17
2023-02-27T15:33:42.484Z,4.15
2023-02-27T15:36:24.647Z,4.02
2023-02-27T15:38:04.077Z,4.01
2023-02-27T15:40:29.729Z,3.99
2023-02-27T15:44:41.507Z,3.87
2023-02-27T15:46:26.521Z,3.81
2023-02-27T15:48:22.505Z,3.82
2023-02-27T15:50:34.091Z,3.69
2023-02-27T15:52:33.084Z,3.57
2023-02-27T15:54:05.349Z,3.48
2023-02-27T15:56:02.293Z,3.37
2023-02-27T15:58:02.447Z,3.26
2023-02-27T15:59:40.263Z,3.16
2023-02-27T16:01:45.217Z,3.08
2023-02-27T16:03:23.840Z,3.02
2023-02-27T16:05:45.342Z,3.01
2023-02-27T16:07:24.781Z,3.00
2023-02-27T16:09:24.593Z,3.01
2023-02-27T16:11:38.904Z,2.98
2023-02-27T16:14:06.273Z,3.01
2023-02-27T16:15:40.290Z,2.96
2023-02-27T16:18:08.803Z,3.01
2023-02-27T16:20:27.155Z,3.06
2023-02-27T16:22:18.391Z,3.03
2023-02-27T16:23:51.622Z,3.02
2023-02-27T16:25:24.243Z,3.05
2023-02-27T16:26:56.501Z,3.03
2023-02-27T16:28:51.110Z,3.07
2023-02-27T16:30:23.331Z,3.10
2023-02-27T16:31:56.774Z,3.06
2023-02-27T16:33:34.168Z,3.08
2023-02-27T16:35:14.788Z,3.04
2023-02-27T16:37:01.913Z,3.07
2023-02-27T16:38:34.147Z,3.03
2023-02-27T16:40:14.502Z,2.98
2023-02-27T16:41:46.805Z,2.99
2023-02-27T16:43:18.949Z,2.98
2023-02-27T16:44:51.200Z,2.97
2023-02-27T16:46:23.785Z,2.93
2023-02-27T16:47:58.871Z,2.86
2023-02-27T16:49:33.396Z,2.76
2023-02-27T16:51:06.796Z,2.65
2023-02-27T16:52:38.928Z,2.56
2023-02-27T16:54:11.288Z,2.48
2023-02-27T16:55:43.898Z,2.38
2023-02-27T16:57:17.740Z,2.26
2023-02-27T16:58:50.848Z,2.21
2023-02-27T17:00:23.277Z,2.12
2023-02-27T17:01:57.046Z,2.05
2023-02-27T17:03:29.293Z,1.97
2023-02-27T17:05:02.353Z,1.92
2023-02-27T17:06:35.201Z,1.87
2023-02-27T17:08:07.595Z,1.89
2023-02-27T17:09:39.817Z,1.81
2023-02-27T17:11:12.130Z,1.82
2023-02-27T17:12:44.353Z,1.82
2023-02-27T17:14:17.077Z,1.82
2023-02-27T17:15:49.162Z,1.83
2023-02-27T17:17:21.308Z,1.85
2023-02-27T17:18:53.422Z,1.83
2023-02-27T17:20:27.966Z,1.78
2023-02-27T17:22:00.050Z,1.79
2023-02-27T17:23:32.357Z,1.85
2023-02-27T17:25:05.355Z,1.87
2023-02-27T17:26:37.596Z,1.90
2023-02-27T17:28:10.147Z,1.92
2023-02-27T17:29:42.582Z,1.96
2023-02-27T17:31:15.828Z,2.04
2023-02-27T17:32:47.996Z,2.10
2023-02-27T17:34:20.255Z,2.14
2023-02-27T17:36:01.847Z,2.13
2023-02-27T17:37:34.409Z,2.18
2023-02-27T17:39:07.396Z,2.15
2023-02-27T17:40:39.479Z,2.25
2023-02-27T17:42:12.966Z,2.29
2023-02-27T17:43:51.397Z,2.28
2023-02-27T17:45:27.066Z,2.31
2023-02-27T17:46:59.240Z,2.29
2023-02-27T17:48:31.365Z,2.33
2023-02-27T17:50:06.292Z,2.40
2023-02-27T17:51:38.539Z,2.37
2023-02-27T17:53:11.671Z,2.41
2023-02-27T17:55:35.273Z,2.43
2023-02-27T17:57:09.301Z,2.44
2023-02-27T17:58:45.374Z,2.46
2023-02-27T18:00:18.362Z,2.49
2023-02-27T18:01:50.694Z,2.50
2023-02-27T18:03:22.843Z,2.55
2023-02-27T18:04:55.089Z,2.55
2023-02-27T18:06:27.637Z,2.53
2023-02-27T18:07:59.966Z,2.58
2023-02-27T18:09:32.719Z,2.58
2023-02-27T18:11:09.558Z,2.59
2023-02-27T18:12:42.708Z,2.58
2023-02-27T18:14:28.922Z,2.55
2023-02-27T18:16:04.000Z,2.58
2023-02-27T18:17:36.269Z,2.54
2023-02-27T18:19:08.581Z,2.58
2023-02-27T18:20:40.785Z,2.61
2023-02-27T18:22:15.339Z,2.62
2023-02-27T18:23:52.256Z,2.62
2023-02-27T18:25:38.403Z,2.64
2023-02-27T18:27:38.919Z,2.66
2023-02-27T18:29:12.058Z,2.69
2023-02-27T18:30:44.325Z,2.68
2023-02-27T18:32:16.580Z,2.71
2023-02-27T18:33:48.953Z,2.71
2023-02-27T18:35:21.126Z,2.71
2023-02-27T18:36:53.464Z,2.71
2023-02-27T18:38:25.597Z,2.68
2023-02-27T18:39:57.771Z,2.71
2023-02-27T18:41:29.910Z,2.68
2023-02-27T18:43:02.080Z,2.71
2023-02-27T18:45:03.656Z,2.69
2023-02-27T18:49:08.277Z,2.72
2023-02-27T18:51:03.555Z,2.74
2023-02-27T18:53:07.661Z,2.75
2023-02-27T18:54:56.603Z,2.74
2023-02-27T18:56:31.032Z,2.74
2023-02-27T18:58:27.205Z,2.72
2023-02-27T19:00:41.791Z,2.70
2023-02-27T19:02:24.658Z,2.70
2023-02-27T19:04:03.550Z,2.72
2023-02-27T19:05:51.373Z,2.70
2023-02-27T19:07:32.321Z,2.70
2023-02-27T19:09:37.448Z,2.71
2023-02-27T19:11:29.679Z,2.67
2023-02-27T19:13:25.703Z,2.67
2023-02-27T19:17:44.853Z,2.65
2023-02-27T19:20:46.204Z,2.65
2023-02-27T19:22:40.266Z,2.62
2023-02-27T19:25:05.864Z,2.54
2023-02-27T19:27:38.215Z,2.51
2023-02-27T19:31:47.640Z,2.49
2023-02-27T19:33:59.497Z,2.47
2023-02-27T19:36:31.552Z,2.46
2023-02-27T19:38:35.627Z,2.45
2023-02-27T19:40:24.132Z,2.45
2023-02-27T19:42:33.811Z,2.43
2023-02-27T19:44:20.800Z,2.39
2023-02-27T19:47:00.747Z,2.31
2023-02-27T19:49:37.735Z,2.20
2023-02-27T19:52:04.301Z,2.10
2023-02-27T19:53:38.548Z,2.01
2023-02-27T19:55:11.281Z,1.94
2023-02-27T19:56:47.123Z,1.84
2023-02-27T19:59:07.665Z,1.71
2023-02-27T20:00:46.601Z,1.56
2023-02-27T20:02:34.290Z,1.48
2023-02-27T20:04:08.012Z,1.41
2023-02-27T20:06:26.106Z,1.25
2023-02-27T20:08:29.589Z,1.07
2023-02-27T20:11:17.051Z,1.00
2023-02-27T20:13:41.471Z,0.93
2023-02-27T20:15:53.202Z,0.84
2023-02-27T20:21:13.484Z,0.57
2023-02-27T20:23:18.335Z,0.52
2023-02-27T20:25:38.046Z,0.44
2023-02-27T20:27:13.043Z,0.41
2023-02-27T20:29:03.432Z,0.43
2023-02-27T20:30:48.471Z,0.47
2023-02-27T20:32:30.807Z,0.52
2023-02-27T20:36:44.463Z,0.56
2023-02-27T20:41:09.420Z,0.55
2023-02-27T20:43:29.475Z,0.57
2023-02-27T20:45:24.096Z,0.54
2023-02-27T20:47:21.513Z,0.45
2023-02-27T20:49:26.549Z,0.36
2023-02-27T20:51:09.691Z,0.32
2023-02-27T20:53:00.590Z,0.32
2023-02-27T20:54:33.048Z,0.33
2023-02-27T20:56:06.653Z,0.34
2023-02-27T20:57:58.788Z,0.33
2023-02-27T20:59:51.341Z,0.26
2023-02-27T21:01:51.785Z,0.24
2023-02-27T21:03:58.082Z,0.25
2023-02-27T21:05:31.128Z,0.24
2023-02-27T21:07:49.568Z,0.20
2023-02-27T21:09:22.337Z,0.11
2023-02-27T21:11:25.383Z,0.01
2023-02-27T21:12:59.166Z,-0.10
2023-02-27T21:15:05.781Z,-0.12
2023-02-27T21:16:40.981Z,-0.16
2023-02-27T21:18:31.393Z,-0.19
2023-02-27T21:20:39.828Z,-0.18
2023-02-27T21:23:27.822Z,-0.18
2023-02-27T21:25:00.047Z,-0.20
2023-02-27T21:26:59.362Z,-0.22
2023-02-27T21:28:54.450Z,-0.27
2023-02-27T21:30:41.830Z,-0.26
2023-02-27T21:32:13.995Z,-0.24
2023-02-27T21:34:08.802Z,-0.25
2023-02-27T21:36:37.373Z,-0.32
2023-02-27T21:38:09.620Z,-0.29
2023-02-27T21:39:41.848Z,-0.30
2023-02-27T21:41:30.770Z,-0.31
2023-02-27T21:43:46.723Z,-0.24
2023-02-27T21:46:15.330Z,-0.22
2023-02-27T21:47:47.506Z,-0.27
2023-02-27T21:49:25.972Z,-0.35
2023-02-27T21:51:04.393Z,-0.34
2023-02-27T21:53:27.967Z,-0.39
2023-02-27T21:55:00.535Z,-0.55
2023-02-27T21:57:03.893Z,-0.63
2023-02-27T21:59:00.842Z,-0.67
2023-02-27T22:01:13.421Z,-0.72
2023-02-27T22:03:11.392Z,-0.66
2023-02-27T22:05:32.749Z,-0.68
2023-02-27T22:08:03.019Z,-0.60
2023-02-27T22:09:35.241Z,-0.61
2023-02-27T22:11:33.836Z,-0.66
2023-02-27T22:13:06.079Z,-0.57
2023-02-27T22:15:13.980Z,-0.58
2023-02-27T22:16:54.800Z,-0.57
2023-02-27T22:19:11.869Z,-0.58
2023-02-27T22:21:08.209Z,-0.60
2023-02-27T22:23:07.580Z,-0.58
2023-02-27T22:24:47.479Z,-0.52
2023-02-27T22:26:24.253Z,-0.47
2023-02-27T22:28:26.589Z,-0.41
2023-02-27T22:29:58.867Z,-0.39
2023-02-27T22:32:03.240Z,-0.40
2023-02-27T22:34:24.874Z,-0.45
2023-02-27T22:36:52.902Z,-0.46
2023-02-27T22:39:11.196Z,-0.46
2023-02-27T22:40:46.229Z,-0.43
2023-02-27T22:42:55.128Z,-0.48
2023-02-27T22:44:27.280Z,-0.37
2023-02-27T22:46:23.862Z,-0.37
2023-02-27T22:48:50.935Z,-0.34
2023-02-27T22:50:23.095Z,-0.32
2023-02-27T22:52:24.200Z,-0.28
2023-02-27T22:53:58.699Z,-0.23
2023-02-27T22:55:30.929Z,-0.19
2023-02-27T22:57:04.693Z,-0.14
2023-02-27T22:58:39.010Z,-0.07
2023-02-27T23:00:33.519Z,-0.09
2023-02-27T23:02:15.567Z,0.01
2023-02-27T23:04:22.117Z,0.11
2023-02-27T23:06:12.761Z,0.18
2023-02-27T23:08:24.185Z,0.34
2023-02-27T23:10:27.958Z,0.43
2023-02-27T23:12:34.543Z,0.49
2023-02-27T23:15:11.999Z,0.60
2023-02-27T23:17:49.336Z,0.71
2023-02-27T23:19:45.825Z,0.79
2023-02-27T23:21:44.606Z,0.80
2023-02-27T23:23:46.449Z,0.88
2023-02-27T23:25:19.867Z,0.92
2023-02-27T23:27:26.383Z,0.95
2023-02-27T23:28:58.793Z,0.92
2023-02-27T23:30:57.764Z,0.97
2023-02-27T23:33:21.123Z,1.00
2023-02-27T23:34:53.268Z,1.04
2023-02-27T23:36:55.296Z,1.02
2023-02-27T23:38:28.401Z,1.05
2023-02-27T23:40:00.557Z,1.07
2023-02-27T23:41:33.605Z,1.06
2023-02-27T23:43:05.711Z,1.10
2023-02-27T23:45:28.194Z,1.12
2023-02-27T23:47:45.354Z,1.15
2023-02-27T23:49:41.391Z,1.15
2023-02-27T23:52:08.093Z,1.11
2023-02-27T23:54:13.819Z,1.14
2023-02-27T23:58:26.114Z,1.16
